sensor_id;sensor_type;location;lat;lon;timestamp;pressure;altitude;pressure_sealevel;temperature;humidity
55486;BME280;49383;-25.924;28.194;2023-05-08T00:00:19;85576.23;;;23.72;32.30
55486;BME280;49383;-25.924;28.194;2023-05-08T00:02:44;85578.19;;;23.71;32.30
55486;BME280;49383;-25.924;28.194;2023-05-08T00:05:09;85584.85;;;23.49;32.29
55486;BME280;49383;-25.924;28.194;2023-05-08T00:07:36;85584.25;;;23.70;32.30
55486;BME280;49383;-25.924;28.194;2023-05-08T00:10:02;85573.38;;;23.69;32.28
55486;BME280;49383;-25.924;28.194;2023-05-08T00:12:26;85571.66;;;23.68;32.27
55486;BME280;49383;-25.924;28.194;2023-05-08T00:14:51;85572.20;;;23.68;32.28
55486;BME280;49383;-25.924;28.194;2023-05-08T00:17:17;85578.15;;;23.67;32.27
55486;BME280;49383;-25.924;28.194;2023-05-08T00:19:42;85580.76;;;23.22;32.26
55486;BME280;49383;-25.924;28.194;2023-05-08T00:22:07;85582.04;;;23.67;32.27
55486;BME280;49383;-25.924;28.194;2023-05-08T00:24:32;85588.61;;;23.66;32.25
55486;BME280;49383;-25.924;28.194;2023-05-08T00:26:57;85594.91;;;23.65;32.26
55486;BME280;49383;-25.924;28.194;2023-05-08T00:29:22;85605.07;;;23.44;32.25
55486;BME280;49383;-25.924;28.194;2023-05-08T00:31:47;85613.40;;;23.67;32.24
55486;BME280;49383;-25.924;28.194;2023-05-08T00:34:12;85611.35;;;23.44;32.24
55486;BME280;49383;-25.924;28.194;2023-05-08T00:36:37;85614.85;;;23.65;32.24
55486;BME280;49383;-25.924;28.194;2023-05-08T00:39:02;85611.29;;;23.42;32.25
55486;BME280;49383;-25.924;28.194;2023-05-08T00:41:27;85606.75;;;23.41;32.25
55486;BME280;49383;-25.924;28.194;2023-05-08T00:43:52;85599.43;;;23.41;32.24
55486;BME280;49383;-25.924;28.194;2023-05-08T00:46:17;85596.69;;;23.63;32.24
55486;BME280;49383;-25.924;28.194;2023-05-08T00:48:43;85601.26;;;23.40;32.25
55486;BME280;49383;-25.924;28.194;2023-05-08T00:51:08;85604.45;;;23.40;32.24
55486;BME280;49383;-25.924;28.194;2023-05-08T00:53:34;85607.25;;;23.62;32.24
55486;BME280;49383;-25.924;28.194;2023-05-08T00:55:58;85605.80;;;23.61;32.24
55486;BME280;49383;-25.924;28.194;2023-05-08T00:58:26;85599.39;;;23.61;32.23
55486;BME280;49383;-25.924;28.194;2023-05-08T01:00:48;85597.24;;;23.38;32.23
55486;BME280;49383;-25.924;28.194;2023-05-08T01:03:13;85600.30;;;23.38;32.24
55486;BME280;49383;-25.924;28.194;2023-05-08T01:05:38;85601.61;;;23.38;32.24
55486;BME280;49383;-25.924;28.194;2023-05-08T01:08:03;85604.72;;;23.37;32.24
55486;BME280;49383;-25.924;28.194;2023-05-08T01:10:36;85614.61;;;23.59;32.24
55486;BME280;49383;-25.924;28.194;2023-05-08T01:13:03;85620.60;;;23.36;32.25
55486;BME280;49383;-25.924;28.194;2023-05-08T01:15:20;85618.02;;;23.59;32.23
55486;BME280;49383;-25.924;28.194;2023-05-08T01:17:55;85606.91;;;23.36;32.23
55486;BME280;49383;-25.924;28.194;2023-05-08T01:20:23;85600.63;;;23.58;32.23
55486;BME280;49383;-25.924;28.194;2023-05-08T01:22:47;85586.05;;;23.59;32.22
55486;BME280;49383;-25.924;28.194;2023-05-08T01:25:10;85567.73;;;23.36;32.21
55486;BME280;49383;-25.924;28.194;2023-05-08T01:32:16;85579.40;;;23.55;32.23
55486;BME280;49383;-25.924;28.194;2023-05-08T01:34:43;85580.66;;;23.54;32.23
55486;BME280;49383;-25.924;28.194;2023-05-08T01:37:05;85577.99;;;23.54;32.24
55486;BME280;49383;-25.924;28.194;2023-05-08T01:39:37;85577.41;;;23.54;32.24
55486;BME280;49383;-25.924;28.194;2023-05-08T01:41:58;85581.98;;;23.31;32.24
55486;BME280;49383;-25.924;28.194;2023-05-08T01:44:20;85584.42;;;23.79;32.24
55486;BME280;49383;-25.924;28.194;2023-05-08T01:46:47;85580.18;;;23.31;32.24
55486;BME280;49383;-25.924;28.194;2023-05-08T01:49:10;85582.96;;;23.52;32.24
55486;BME280;49383;-25.924;28.194;2023-05-08T01:51:38;85591.02;;;23.52;32.24
55486;BME280;49383;-25.924;28.194;2023-05-08T01:54:02;85598.96;;;23.30;32.24
55486;BME280;49383;-25.924;28.194;2023-05-08T01:56:24;85612.92;;;23.78;32.25
55486;BME280;49383;-25.924;28.194;2023-05-08T01:58:49;85612.42;;;23.51;32.25
55486;BME280;49383;-25.924;28.194;2023-05-08T02:01:13;85601.93;;;23.49;32.25
55486;BME280;49383;-25.924;28.194;2023-05-08T02:03:40;85596.88;;;23.48;32.25
55486;BME280;49383;-25.924;28.194;2023-05-08T02:06:04;85602.07;;;23.47;32.27
55486;BME280;49383;-25.924;28.194;2023-05-08T02:08:29;85600.52;;;23.47;32.27
55486;BME280;49383;-25.924;28.194;2023-05-08T02:10:53;85600.54;;;23.25;32.27
55486;BME280;49383;-25.924;28.194;2023-05-08T02:13:19;85593.30;;;23.25;32.27
55486;BME280;49383;-25.924;28.194;2023-05-08T02:15:43;85598.36;;;23.47;32.27
55486;BME280;49383;-25.924;28.194;2023-05-08T02:18:08;85611.78;;;23.47;32.28
55486;BME280;49383;-25.924;28.194;2023-05-08T02:20:33;85622.06;;;23.47;32.26
55486;BME280;49383;-25.924;28.194;2023-05-08T02:22:59;85630.89;;;23.24;32.28
55486;BME280;49383;-25.924;28.194;2023-05-08T02:25:24;85637.91;;;23.23;32.28
55486;BME280;49383;-25.924;28.194;2023-05-08T02:27:49;85640.70;;;23.45;32.29
55486;BME280;49383;-25.924;28.194;2023-05-08T02:30:15;85642.65;;;23.45;32.29
55486;BME280;49383;-25.924;28.194;2023-05-08T02:32:38;85647.59;;;23.22;32.29
55486;BME280;49383;-25.924;28.194;2023-05-08T02:35:04;85653.76;;;23.20;32.31
55486;BME280;49383;-25.924;28.194;2023-05-08T02:37:30;85649.99;;;23.42;32.31
55486;BME280;49383;-25.924;28.194;2023-05-08T02:39:55;85641.50;;;23.43;32.31
55486;BME280;49383;-25.924;28.194;2023-05-08T02:42:18;85636.89;;;23.20;32.31
55486;BME280;49383;-25.924;28.194;2023-05-08T02:44:46;85633.80;;;23.42;32.32
55486;BME280;49383;-25.924;28.194;2023-05-08T02:47:15;85625.91;;;23.42;32.31
55486;BME280;49383;-25.924;28.194;2023-05-08T02:49:43;85615.13;;;23.42;32.31
55486;BME280;49383;-25.924;28.194;2023-05-08T02:52:06;85607.96;;;23.19;32.31
55486;BME280;49383;-25.924;28.194;2023-05-08T02:54:31;85600.75;;;23.40;32.32
55486;BME280;49383;-25.924;28.194;2023-05-08T02:56:58;85586.64;;;23.40;32.32
55486;BME280;49383;-25.924;28.194;2023-05-08T02:59:17;85580.31;;;23.41;32.31
55486;BME280;49383;-25.924;28.194;2023-05-08T03:01:46;85573.75;;;23.39;32.32
55486;BME280;49383;-25.924;28.194;2023-05-08T03:04:06;85589.22;;;23.38;32.34
55486;BME280;49383;-25.924;28.194;2023-05-08T03:06:34;85593.03;;;23.64;32.33
55486;BME280;49383;-25.924;28.194;2023-05-08T03:08:56;85595.53;;;23.37;32.35
55486;BME280;49383;-25.924;28.194;2023-05-08T03:11:23;85596.81;;;23.36;32.35
55486;BME280;49383;-25.924;28.194;2023-05-08T03:13:45;85592.08;;;23.36;32.35
55486;BME280;49383;-25.924;28.194;2023-05-08T03:16:12;85593.28;;;23.36;32.35
55486;BME280;49383;-25.924;28.194;2023-05-08T03:18:37;85602.22;;;23.35;32.36
55486;BME280;49383;-25.924;28.194;2023-05-08T03:20:59;85609.75;;;23.35;32.35
55486;BME280;49383;-25.924;28.194;2023-05-08T03:23:25;85605.44;;;23.61;32.36
55486;BME280;49383;-25.924;28.194;2023-05-08T03:25:48;85599.82;;;23.34;32.36
55486;BME280;49383;-25.924;28.194;2023-05-08T03:28:14;85599.43;;;23.33;32.37
55486;BME280;49383;-25.924;28.194;2023-05-08T03:30:40;85599.73;;;23.11;32.37
55486;BME280;49383;-25.924;28.194;2023-05-08T03:33:04;85596.80;;;23.32;32.38
55486;BME280;49383;-25.924;28.194;2023-05-08T03:35:29;85592.23;;;23.32;32.38
55486;BME280;49383;-25.924;28.194;2023-05-08T03:37:54;85592.85;;;23.31;32.39
55486;BME280;49383;-25.924;28.194;2023-05-08T03:40:19;85599.67;;;23.31;32.39
55486;BME280;49383;-25.924;28.194;2023-05-08T03:42:44;85611.26;;;23.30;32.39
55486;BME280;49383;-25.924;28.194;2023-05-08T03:45:10;85612.31;;;23.30;32.39
55486;BME280;49383;-25.924;28.194;2023-05-08T03:47:35;85618.10;;;23.29;32.39
55486;BME280;49383;-25.924;28.194;2023-05-08T03:50:00;85625.99;;;23.29;32.40
55486;BME280;49383;-25.924;28.194;2023-05-08T03:52:24;85631.58;;;23.29;32.40
55486;BME280;49383;-25.924;28.194;2023-05-08T03:54:49;85634.14;;;23.30;32.39
55486;BME280;49383;-25.924;28.194;2023-05-08T03:57:14;85638.75;;;23.30;32.39
55486;BME280;49383;-25.924;28.194;2023-05-08T03:59:47;85643.77;;;23.30;32.40
55486;BME280;49383;-25.924;28.194;2023-05-08T04:02:13;85646.39;;;23.29;32.40
55486;BME280;49383;-25.924;28.194;2023-05-08T04:04:35;85644.27;;;23.30;32.39
55486;BME280;49383;-25.924;28.194;2023-05-08T04:07:00;85639.23;;;23.29;32.39
55486;BME280;49383;-25.924;28.194;2023-05-08T04:09:33;85630.04;;;23.29;32.39
55486;BME280;49383;-25.924;28.194;2023-05-08T04:11:51;85626.14;;;23.29;32.39
55486;BME280;49383;-25.924;28.194;2023-05-08T04:14:15;85627.62;;;23.28;32.40
55486;BME280;49383;-25.924;28.194;2023-05-08T04:16:41;85632.53;;;23.28;32.40
55486;BME280;49383;-25.924;28.194;2023-05-08T04:19:01;85645.11;;;23.27;32.41
55486;BME280;49383;-25.924;28.194;2023-05-08T04:21:24;85659.97;;;23.27;32.41
55486;BME280;49383;-25.924;28.194;2023-05-08T04:23:50;85663.97;;;23.28;32.39
55486;BME280;49383;-25.924;28.194;2023-05-08T04:26:16;85663.87;;;23.27;32.41
55486;BME280;49383;-25.924;28.194;2023-05-08T04:28:41;85658.17;;;23.26;32.42
55486;BME280;49383;-25.924;28.194;2023-05-08T04:31:04;85605.30;;;23.24;32.43
55486;BME280;49383;-25.924;28.194;2023-05-08T04:33:29;85583.95;;;23.23;32.44
55486;BME280;49383;-25.924;28.194;2023-05-08T04:35:54;85601.44;;;23.22;32.45
55486;BME280;49383;-25.924;28.194;2023-05-08T04:38:19;85623.37;;;22.77;32.46
55486;BME280;49383;-25.924;28.194;2023-05-08T04:40:44;85657.07;;;23.21;32.47
55486;BME280;49383;-25.924;28.194;2023-05-08T04:43:09;85671.60;;;23.47;32.47
55486;BME280;49383;-25.924;28.194;2023-05-08T04:45:34;85668.53;;;23.21;32.47
55486;BME280;49383;-25.924;28.194;2023-05-08T04:47:59;85671.78;;;23.20;32.48
55486;BME280;49383;-25.924;28.194;2023-05-08T04:50:25;85667.11;;;23.20;32.48
55486;BME280;49383;-25.924;28.194;2023-05-08T04:52:50;85661.77;;;23.19;32.48
55486;BME280;49383;-25.924;28.194;2023-05-08T04:55:15;85668.87;;;23.19;32.49
55486;BME280;49383;-25.924;28.194;2023-05-08T04:57:40;85681.03;;;23.20;32.49
55486;BME280;49383;-25.924;28.194;2023-05-08T05:00:07;85698.41;;;23.19;32.49
55486;BME280;49383;-25.924;28.194;2023-05-08T05:02:30;85719.29;;;23.19;32.50
55486;BME280;49383;-25.924;28.194;2023-05-08T05:04:55;85714.12;;;22.97;32.49
55486;BME280;49383;-25.924;28.194;2023-05-08T05:07:20;85683.20;;;23.19;32.50
55486;BME280;49383;-25.924;28.194;2023-05-08T05:09:45;85648.27;;;23.17;32.50
55486;BME280;49383;-25.924;28.194;2023-05-08T05:12:10;85648.82;;;23.16;32.51
55486;BME280;49383;-25.924;28.194;2023-05-08T05:14:35;85675.33;;;23.43;32.52
55486;BME280;49383;-25.924;28.194;2023-05-08T05:17:00;85695.22;;;22.93;32.53
55486;BME280;49383;-25.924;28.194;2023-05-08T05:19:25;85707.71;;;23.16;32.53
55486;BME280;49383;-25.924;28.194;2023-05-08T05:21:50;85704.68;;;23.15;32.53
55486;BME280;49383;-25.924;28.194;2023-05-08T05:24:15;85692.94;;;23.15;32.54
55486;BME280;49383;-25.924;28.194;2023-05-08T05:26:40;85694.05;;;22.92;32.54
55486;BME280;49383;-25.924;28.194;2023-05-08T05:29:05;85700.39;;;23.14;32.55
55486;BME280;49383;-25.924;28.194;2023-05-08T05:31:30;85710.17;;;23.15;32.54
55486;BME280;49383;-25.924;28.194;2023-05-08T05:33:55;85712.97;;;22.92;32.55
55486;BME280;49383;-25.924;28.194;2023-05-08T05:36:20;85714.11;;;23.14;32.56
55486;BME280;49383;-25.924;28.194;2023-05-08T05:38:45;85684.22;;;23.40;32.56
55486;BME280;49383;-25.924;28.194;2023-05-08T05:41:10;85634.67;;;23.12;32.56
55486;BME280;49383;-25.924;28.194;2023-05-08T05:43:35;85625.22;;;23.11;32.58
55486;BME280;49383;-25.924;28.194;2023-05-08T05:46:08;85654.06;;;23.09;32.60
55486;BME280;49383;-25.924;28.194;2023-05-08T05:48:25;85667.16;;;23.10;32.59
55486;BME280;49383;-25.924;28.194;2023-05-08T05:50:50;85648.75;;;23.09;32.59
55486;BME280;49383;-25.924;28.194;2023-05-08T05:53:15;85639.49;;;23.09;32.59
55486;BME280;49383;-25.924;28.194;2023-05-08T05:55:40;85647.55;;;23.35;32.60
55486;BME280;49383;-25.924;28.194;2023-05-08T05:58:05;85653.49;;;23.08;32.61
55486;BME280;49383;-25.924;28.194;2023-05-08T06:00:30;85643.05;;;23.09;32.61
55486;BME280;49383;-25.924;28.194;2023-05-08T06:02:55;85626.55;;;23.08;32.62
55486;BME280;49383;-25.924;28.194;2023-05-08T06:05:20;85621.00;;;23.07;32.64
55486;BME280;49383;-25.924;28.194;2023-05-08T06:07:45;85629.58;;;23.33;32.65
55486;BME280;49383;-25.924;28.194;2023-05-08T06:10:10;85633.71;;;23.06;32.65
55486;BME280;49383;-25.924;28.194;2023-05-08T06:12:38;85640.61;;;23.07;32.65
55486;BME280;49383;-25.924;28.194;2023-05-08T06:15:00;85642.99;;;23.06;32.66
55486;BME280;49383;-25.924;28.194;2023-05-08T06:17:26;85647.93;;;23.05;32.66
55486;BME280;49383;-25.924;28.194;2023-05-08T06:19:52;85656.92;;;23.05;32.67
55486;BME280;49383;-25.924;28.194;2023-05-08T06:22:16;85662.74;;;23.05;32.67
55486;BME280;49383;-25.924;28.194;2023-05-08T06:24:40;85672.60;;;23.05;32.67
55486;BME280;49383;-25.924;28.194;2023-05-08T06:27:05;85681.57;;;23.06;32.68
55486;BME280;49383;-25.924;28.194;2023-05-08T06:29:30;85699.84;;;23.33;32.68
55486;BME280;49383;-25.924;28.194;2023-05-08T06:31:56;85718.94;;;23.32;32.69
55486;BME280;49383;-25.924;28.194;2023-05-08T06:34:21;85727.20;;;23.06;32.70
55486;BME280;49383;-25.924;28.194;2023-05-08T06:36:46;85725.31;;;23.06;32.70
55486;BME280;49383;-25.924;28.194;2023-05-08T06:39:11;85720.04;;;23.06;32.70
55486;BME280;49383;-25.924;28.194;2023-05-08T06:41:36;85724.17;;;23.06;32.71
55486;BME280;49383;-25.924;28.194;2023-05-08T06:44:01;85724.91;;;23.06;32.72
55486;BME280;49383;-25.924;28.194;2023-05-08T06:46:26;85715.05;;;23.07;32.71
55486;BME280;49383;-25.924;28.194;2023-05-08T06:48:51;85698.49;;;23.08;32.72
55486;BME280;49383;-25.924;28.194;2023-05-08T06:51:16;85696.74;;;23.08;32.73
55486;BME280;49383;-25.924;28.194;2023-05-08T06:53:41;85693.49;;;23.10;32.74
55486;BME280;49383;-25.924;28.194;2023-05-08T06:56:06;85698.81;;;22.88;32.74
55486;BME280;49383;-25.924;28.194;2023-05-08T06:58:31;85696.53;;;23.11;32.74
55486;BME280;49383;-25.924;28.194;2023-05-08T07:00:56;85684.00;;;23.38;32.76
55486;BME280;49383;-25.924;28.194;2023-05-08T07:03:21;85694.32;;;23.12;32.76
55486;BME280;49383;-25.924;28.194;2023-05-08T07:05:46;85703.46;;;23.40;32.75
55486;BME280;49383;-25.924;28.194;2023-05-08T07:08:11;85712.50;;;23.14;32.76
55486;BME280;49383;-25.924;28.194;2023-05-08T07:10:36;85720.84;;;23.15;32.78
55486;BME280;49383;-25.924;28.194;2023-05-08T07:13:01;85725.29;;;23.16;32.78
55486;BME280;49383;-25.924;28.194;2023-05-08T07:15:26;85729.00;;;22.94;32.79
55486;BME280;49383;-25.924;28.194;2023-05-08T07:17:51;85730.34;;;23.17;32.78
55486;BME280;49383;-25.924;28.194;2023-05-08T07:20:16;85731.32;;;23.18;32.78
55486;BME280;49383;-25.924;28.194;2023-05-08T07:22:41;85735.86;;;23.44;32.78
55486;BME280;49383;-25.924;28.194;2023-05-08T07:25:07;85740.91;;;23.44;32.80
55486;BME280;49383;-25.924;28.194;2023-05-08T07:27:34;85741.20;;;23.17;32.80
55486;BME280;49383;-25.924;28.194;2023-05-08T07:29:56;85738.45;;;23.44;32.81
55486;BME280;49383;-25.924;28.194;2023-05-08T07:32:21;85724.95;;;23.16;32.83
55486;BME280;49383;-25.924;28.194;2023-05-08T07:34:46;85694.41;;;23.15;32.85
55486;BME280;49383;-25.924;28.194;2023-05-08T07:37:11;85658.40;;;22.92;32.86
55486;BME280;49383;-25.924;28.194;2023-05-08T07:39:36;85632.35;;;23.12;32.88
55486;BME280;49383;-25.924;28.194;2023-05-08T07:42:01;85631.96;;;23.11;32.89
55486;BME280;49383;-25.924;28.194;2023-05-08T07:44:26;85648.35;;;23.11;32.90
55486;BME280;49383;-25.924;28.194;2023-05-08T07:46:51;85643.88;;;23.13;32.89
55486;BME280;49383;-25.924;28.194;2023-05-08T07:49:17;85629.36;;;23.12;32.91
55486;BME280;49383;-25.924;28.194;2023-05-08T07:51:41;85622.73;;;22.89;32.92
55486;BME280;49383;-25.924;28.194;2023-05-08T07:54:06;85632.43;;;23.11;32.92
55486;BME280;49383;-25.924;28.194;2023-05-08T07:56:33;85641.89;;;23.12;32.94
55486;BME280;49383;-25.924;28.194;2023-05-08T07:58:56;85649.35;;;23.12;32.94
55486;BME280;49383;-25.924;28.194;2023-05-08T08:01:22;85651.78;;;23.12;32.95
55486;BME280;49383;-25.924;28.194;2023-05-08T08:03:46;85647.26;;;23.12;32.96
55486;BME280;49383;-25.924;28.194;2023-05-08T08:06:11;85640.60;;;23.12;32.96
55486;BME280;49383;-25.924;28.194;2023-05-08T08:08:36;85635.00;;;23.13;32.94
55486;BME280;49383;-25.924;28.194;2023-05-08T08:11:01;85634.19;;;23.15;32.90
55486;BME280;49383;-25.924;28.194;2023-05-08T08:13:26;85632.32;;;23.18;32.85
55486;BME280;49383;-25.924;28.194;2023-05-08T08:18:19;85623.99;;;22.92;32.70
55486;BME280;49383;-25.924;28.194;2023-05-08T08:20:42;85622.95;;;23.13;32.48
55486;BME280;49383;-25.924;28.194;2023-05-08T08:23:06;85616.48;;;23.02;32.34
55486;BME280;49383;-25.924;28.194;2023-05-08T08:25:31;85611.08;;;23.14;32.26
55486;BME280;49383;-25.924;28.194;2023-05-08T08:27:57;85596.90;;;23.50;32.24
55486;BME280;49383;-25.924;28.194;2023-05-08T08:30:21;85603.51;;;23.58;32.22
55486;BME280;49383;-25.924;28.194;2023-05-08T08:32:47;85615.44;;;23.16;32.14
55486;BME280;49383;-25.924;28.194;2023-05-08T08:35:14;85619.17;;;23.22;32.13
55486;BME280;49383;-25.924;28.194;2023-05-08T08:37:39;85622.98;;;23.25;32.10
55486;BME280;49383;-25.924;28.194;2023-05-08T08:40:07;85629.01;;;23.29;32.09
55486;BME280;49383;-25.924;28.194;2023-05-08T08:42:31;85637.39;;;23.33;32.10
55486;BME280;49383;-25.924;28.194;2023-05-08T08:44:57;85640.32;;;23.36;32.07
55486;BME280;49383;-25.924;28.194;2023-05-08T08:47:27;85640.45;;;23.60;32.08
55486;BME280;49383;-25.924;28.194;2023-05-08T08:49:50;85630.49;;;23.88;32.06
55486;BME280;49383;-25.924;28.194;2023-05-08T08:52:31;85629.13;;;23.41;32.07
55486;BME280;49383;-25.924;28.194;2023-05-08T08:54:42;85633.01;;;23.65;32.09
55486;BME280;49383;-25.924;28.194;2023-05-08T08:57:07;85633.31;;;23.46;32.04
55486;BME280;49383;-25.924;28.194;2023-05-08T08:59:32;85631.96;;;23.49;32.06
55486;BME280;49383;-25.924;28.194;2023-05-08T09:02:00;85634.08;;;23.73;32.04
55486;BME280;49383;-25.924;28.194;2023-05-08T09:04:24;85636.96;;;23.25;32.04
55486;BME280;49383;-25.924;28.194;2023-05-08T09:06:49;85637.52;;;23.53;32.04
55486;BME280;49383;-25.924;28.194;2023-05-08T09:09:14;85636.61;;;23.75;32.02
55486;BME280;49383;-25.924;28.194;2023-05-08T09:11:40;85635.10;;;23.53;32.04
55486;BME280;49383;-25.924;28.194;2023-05-08T09:14:06;85626.55;;;23.51;32.03
55486;BME280;49383;-25.924;28.194;2023-05-08T09:16:33;85619.64;;;23.73;32.04
55486;BME280;49383;-25.924;28.194;2023-05-08T09:18:56;85616.17;;;23.51;32.04
55486;BME280;49383;-25.924;28.194;2023-05-08T09:21:21;85616.94;;;23.52;32.07
55486;BME280;49383;-25.924;28.194;2023-05-08T09:28:38;85631.04;;;23.78;32.05
55486;BME280;49383;-25.924;28.194;2023-05-08T09:31:02;85631.96;;;23.57;32.02
55486;BME280;49383;-25.924;28.194;2023-05-08T09:33:28;85633.92;;;23.57;32.03
55486;BME280;49383;-25.924;28.194;2023-05-08T09:35:53;85633.00;;;23.79;32.03
55486;BME280;49383;-25.924;28.194;2023-05-08T09:40:44;85617.04;;;23.55;32.05
55486;BME280;49383;-25.924;28.194;2023-05-08T09:43:12;85610.33;;;24.03;32.05
55486;BME280;49383;-25.924;28.194;2023-05-08T09:45:35;85608.40;;;23.75;32.04
55486;BME280;49383;-25.924;28.194;2023-05-08T09:48:00;85609.89;;;23.25;32.05
55486;BME280;49383;-25.924;28.194;2023-05-08T09:50:25;85625.38;;;23.50;32.07
55486;BME280;49383;-25.924;28.194;2023-05-08T09:52:51;85658.97;;;23.49;32.09
55486;BME280;49383;-25.924;28.194;2023-05-08T09:55:17;85695.41;;;23.69;32.09
55486;BME280;49383;-25.924;28.194;2023-05-08T10:00:09;85659.87;;;23.42;32.12
55486;BME280;49383;-25.924;28.194;2023-05-08T10:02:33;85660.14;;;23.63;32.15
55486;BME280;49383;-25.924;28.194;2023-05-08T10:04:57;85633.17;;;23.61;32.17
55486;BME280;49383;-25.924;28.194;2023-05-08T10:07:27;85607.38;;;23.58;32.20
55486;BME280;49383;-25.924;28.194;2023-05-08T10:12:12;85605.74;;;23.54;32.21
55486;BME280;49383;-25.924;28.194;2023-05-08T10:14:39;85599.48;;;23.79;32.20
55486;BME280;49383;-25.924;28.194;2023-05-08T10:17:07;85612.48;;;23.59;31.92
55486;BME280;49383;-25.924;28.194;2023-05-08T10:19:28;85609.04;;;23.48;32.00
55486;BME280;49383;-25.924;28.194;2023-05-08T10:21:59;85589.52;;;23.58;32.10
55486;BME280;49383;-25.924;28.194;2023-05-08T10:24:20;85589.67;;;23.78;32.16
55486;BME280;49383;-25.924;28.194;2023-05-08T10:26:51;85588.49;;;23.49;32.19
55486;BME280;49383;-25.924;28.194;2023-05-08T10:29:17;85599.48;;;23.47;32.21
55486;BME280;49383;-25.924;28.194;2023-05-08T10:31:36;85594.60;;;23.22;32.21
55486;BME280;49383;-25.924;28.194;2023-05-08T10:34:01;85591.82;;;23.43;32.21
55486;BME280;49383;-25.924;28.194;2023-05-08T10:36:25;85584.16;;;23.43;32.21
55486;BME280;49383;-25.924;28.194;2023-05-08T10:38:50;85577.18;;;23.42;32.22
55486;BME280;49383;-25.924;28.194;2023-05-08T10:41:15;85573.72;;;23.67;32.22
55486;BME280;49383;-25.924;28.194;2023-05-08T10:43:41;85566.68;;;23.67;32.22
55486;BME280;49383;-25.924;28.194;2023-05-08T10:46:10;85562.99;;;23.40;32.22
55486;BME280;49383;-25.924;28.194;2023-05-08T10:48:41;85556.78;;;23.40;32.23
55486;BME280;49383;-25.924;28.194;2023-05-08T10:50:59;85573.79;;;23.40;32.23
55486;BME280;49383;-25.924;28.194;2023-05-08T10:53:28;85586.47;;;23.41;32.23
55486;BME280;49383;-25.924;28.194;2023-05-08T10:55:49;85581.69;;;23.68;32.23
55486;BME280;49383;-25.924;28.194;2023-05-08T10:58:11;85564.26;;;23.42;32.23
55486;BME280;49383;-25.924;28.194;2023-05-08T11:03:05;85560.67;;;23.68;32.26
55486;BME280;49383;-25.924;28.194;2023-05-08T11:05:26;85559.11;;;23.42;32.26
55486;BME280;49383;-25.924;28.194;2023-05-08T11:07:54;85561.52;;;23.42;32.27
55486;BME280;49383;-25.924;28.194;2023-05-08T11:10:16;85561.23;;;23.69;32.27
55486;BME280;49383;-25.924;28.194;2023-05-08T11:12:47;85559.23;;;23.42;32.26
55486;BME280;49383;-25.924;28.194;2023-05-08T11:15:07;85557.43;;;23.42;32.31
55486;BME280;49383;-25.924;28.194;2023-05-08T11:17:31;85553.85;;;23.41;32.28
55486;BME280;49383;-25.924;28.194;2023-05-08T11:19:57;85552.17;;;23.68;32.28
55486;BME280;49383;-25.924;28.194;2023-05-08T11:22:30;85548.79;;;23.41;32.28
55486;BME280;49383;-25.924;28.194;2023-05-08T11:24:51;85547.75;;;23.50;32.19
55486;BME280;49383;-25.924;28.194;2023-05-08T11:27:11;85545.86;;;23.50;32.19
55486;BME280;49383;-25.924;28.194;2023-05-08T11:29:36;85536.89;;;23.72;32.24
55486;BME280;49383;-25.924;28.194;2023-05-08T11:32:01;85527.39;;;23.71;32.25
55486;BME280;49383;-25.924;28.194;2023-05-08T11:36:59;85520.68;;;23.45;32.27
55486;BME280;49383;-25.924;28.194;2023-05-08T11:39:17;85518.47;;;23.72;32.26
55486;BME280;49383;-25.924;28.194;2023-05-08T11:41:41;85516.59;;;23.46;32.26
55486;BME280;49383;-25.924;28.194;2023-05-08T11:44:18;85514.38;;;23.73;32.27
55486;BME280;49383;-25.924;28.194;2023-05-08T11:46:40;85509.09;;;23.46;32.28
55486;BME280;49383;-25.924;28.194;2023-05-08T11:48:58;85502.88;;;23.73;32.29
55486;BME280;49383;-25.924;28.194;2023-05-08T11:51:21;85500.56;;;23.46;32.30
55486;BME280;49383;-25.924;28.194;2023-05-08T11:53:47;85505.21;;;23.24;32.32
55486;BME280;49383;-25.924;28.194;2023-05-08T11:56:11;85501.30;;;23.47;32.30
55486;BME280;49383;-25.924;28.194;2023-05-08T11:58:36;85493.91;;;23.48;32.29
55486;BME280;49383;-25.924;28.194;2023-05-08T12:01:02;85485.31;;;23.48;32.29
55486;BME280;49383;-25.924;28.194;2023-05-08T12:03:26;85486.74;;;23.48;32.29
55486;BME280;49383;-25.924;28.194;2023-05-08T12:05:55;85485.43;;;23.75;32.29
55486;BME280;49383;-25.924;28.194;2023-05-08T12:08:18;85486.68;;;23.75;32.30
55486;BME280;49383;-25.924;28.194;2023-05-08T12:10:50;85497.41;;;23.26;32.31
55486;BME280;49383;-25.924;28.194;2023-05-08T12:15:32;85512.42;;;23.24;32.35
55486;BME280;49383;-25.924;28.194;2023-05-08T12:18:02;85519.05;;;23.45;32.36
55486;BME280;49383;-25.924;28.194;2023-05-08T12:20:21;85515.15;;;23.44;32.37
55486;BME280;49383;-25.924;28.194;2023-05-08T12:22:51;85483.22;;;23.70;32.37
55486;BME280;49383;-25.924;28.194;2023-05-08T12:25:11;85463.74;;;23.41;32.37
55486;BME280;49383;-25.924;28.194;2023-05-08T12:27:37;85476.56;;;23.67;32.38
55486;BME280;49383;-25.924;28.194;2023-05-08T12:30:06;85482.15;;;23.66;32.39
55486;BME280;49383;-25.924;28.194;2023-05-08T12:32:26;85484.78;;;23.66;32.39
55486;BME280;49383;-25.924;28.194;2023-05-08T12:34:52;85481.87;;;23.16;32.40
55486;BME280;49383;-25.924;28.194;2023-05-08T12:37:22;85475.95;;;23.64;32.40
55486;BME280;49383;-25.924;28.194;2023-05-08T12:39:44;85472.23;;;23.37;32.40
55486;BME280;49383;-25.924;28.194;2023-05-08T12:42:06;85471.68;;;23.63;32.41
55486;BME280;49383;-25.924;28.194;2023-05-08T12:44:33;85466.67;;;23.35;32.41
55486;BME280;49383;-25.924;28.194;2023-05-08T12:46:58;85463.29;;;23.61;32.41
55486;BME280;49383;-25.924;28.194;2023-05-08T12:49:27;85463.29;;;23.35;32.41
55486;BME280;49383;-25.924;28.194;2023-05-08T12:51:47;85462.31;;;23.34;32.42
55486;BME280;49383;-25.924;28.194;2023-05-08T12:54:11;85460.63;;;23.34;32.41